Time;durP1;ratioP1;P1;durP2;ratioP2;P2;SDS_P1;SDS_P2;PMS_P1;PMS_P2;Temp;Humidity;BMP_temperature;BMP_pressure;BME280_temperature;BME280_humidity;BME280_pressure;Samples;Min_cycle;Max_cycle;Signal;HPM_P1;HPM_P2
2021/10/29 00:00:15;;;;;;;;;;;26.10;42.90;;;;;;5094020;28;20218;-81
2021/10/29 00:02:41;;;;;;;;;;;26.10;42.90;;;;;;5077080;28;20347;-84
2021/10/29 00:05:06;;;;;;;;;;;26.10;42.90;;;;;;5094062;28;20245;-82
2021/10/29 00:07:32;;;;;;;;;;;26.10;42.80;;;;;;5094333;28;19959;-84
2021/10/29 00:10:00;;;;;;;;;;;26.10;42.90;;;;;;5077016;28;19955;-87
2021/10/29 00:12:28;;;;;;;;;;;26.10;42.90;;;;;;5093675;28;19912;-82
2021/10/29 00:14:56;;;;;;;;;;;26.10;42.90;;;;;;5076896;28;19919;-83
2021/10/29 00:17:21;;;;;;;;;;;26.00;42.80;;;;;;5076570;28;19944;-83
2021/10/29 00:19:47;;;;;;;;;;;26.00;42.80;;;;;;5076923;28;19908;-83
2021/10/29 00:22:12;;;;;;;;;;;26.10;42.90;;;;;;5076577;28;19923;-83
2021/10/29 00:24:40;;;;;;;;;;;26.00;42.90;;;;;;5076010;28;19908;-84
2021/10/29 00:27:08;;;;;;;;;;;26.00;42.80;;;;;;5093155;28;19908;-83
2021/10/29 00:29:34;;;;;;;;;;;26.00;42.80;;;;;;5076360;28;20003;-85
2021/10/29 00:31:59;;;;;;;;;;;26.00;42.90;;;;;;5076444;28;20078;-83
2021/10/29 00:34:25;;;;;;;;;;;26.00;42.90;;;;;;5076814;28;19909;-85
2021/10/29 00:36:50;;;;;;;;;;;26.00;42.90;;;;;;5076795;28;19952;-81
2021/10/29 00:39:16;;;;;;;;;;;26.00;41.20;;;;;;5075965;28;19947;-78
2021/10/29 00:41:44;;;;;;;;;;;25.90;40.10;;;;;;5093018;28;20242;-78
2021/10/29 00:44:10;;;;;;;;;;;25.20;39.00;;;;;;5059116;28;19908;-81
2021/10/29 00:46:35;;;;;;;;;;;23.90;40.90;;;;;;5075925;28;19935;-82
2021/10/29 00:49:01;;;;;;;;;;;23.80;41.70;;;;;;5075497;28;20367;-86
2021/10/29 00:51:29;;;;;;;;;;;24.20;41.90;;;;;;5079761;28;19908;-86
2021/10/29 00:53:55;;;;;;;;;;;24.50;41.50;;;;;;5079968;28;19908;-88
2021/10/29 00:56:26;;;;;;;;;;;24.80;41.40;;;;;;5064065;28;20467;-88
2021/10/29 00:58:51;;;;;;;;;;;25.00;41.20;;;;;;5064518;28;20124;-90
2021/10/29 01:01:17;;;;;;;;;;;25.20;41.10;;;;;;5080000;28;19958;-86
2021/10/29 01:03:42;;;;;;;;;;;25.30;41.00;;;;;;5079523;28;19956;-84
2021/10/29 01:06:11;;;;;;;;;;;25.40;41.10;;;;;;5062558;28;20226;-83
2021/10/29 01:08:37;;;;;;;;;;;25.50;41.10;;;;;;5062641;28;20256;-87
2021/10/29 01:11:05;;;;;;;;;;;25.50;41.20;;;;;;5063537;28;19912;-87
2021/10/29 01:13:31;;;;;;;;;;;25.50;41.20;;;;;;5062586;28;20232;-86
2021/10/29 01:15:57;;;;;;;;;;;25.60;41.20;;;;;;5063026;28;19908;-86
2021/10/29 01:18:25;;;;;;;;;;;25.60;41.30;;;;;;5062676;28;20332;-84
2021/10/29 01:20:53;;;;;;;;;;;25.60;41.40;;;;;;5079077;28;19931;-82
2021/10/29 01:23:18;;;;;;;;;;;25.60;41.40;;;;;;5062528;28;19970;-83
2021/10/29 01:25:44;;;;;;;;;;;25.60;41.50;;;;;;5062611;28;19908;-86
2021/10/29 01:28:12;;;;;;;;;;;25.60;41.60;;;;;;5062086;28;19962;-83
2021/10/29 01:30:40;;;;;;;;;;;25.60;41.70;;;;;;5062259;28;19908;-85
2021/10/29 01:33:08;;;;;;;;;;;25.60;41.70;;;;;;5062064;28;19962;-87
2021/10/29 01:35:33;;;;;;;;;;;25.60;41.70;;;;;;5061834;28;19912;-84
2021/10/29 01:37:59;;;;;;;;;;;25.70;41.80;;;;;;5079098;28;19923;-86
2021/10/29 01:40:25;;;;;;;;;;;25.60;41.80;;;;;;5078957;28;19915;-83
2021/10/29 01:42:53;;;;;;;;;;;25.60;41.90;;;;;;5062405;28;19919;-82
2021/10/29 01:45:21;;;;;;;;;;;25.60;41.90;;;;;;5062282;28;19907;-85
2021/10/29 01:47:46;;;;;;;;;;;25.60;42.00;;;;;;5078902;28;20339;-87
2021/10/29 01:50:12;;;;;;;;;;;25.60;42.00;;;;;;5061868;28;20015;-87
2021/10/29 01:52:42;;;;;;;;;;;25.60;42.10;;;;;;5078542;28;19926;-83
2021/10/29 01:55:08;;;;;;;;;;;25.60;42.10;;;;;;5062108;28;19909;-83
2021/10/29 01:57:33;;;;;;;;;;;25.60;42.20;;;;;;5061891;28;20339;-84
2021/10/29 02:00:01;;;;;;;;;;;25.60;42.20;;;;;;5062121;28;19908;-89
2021/10/29 02:02:27;;;;;;;;;;;25.60;42.20;;;;;;5062245;28;19916;-86
2021/10/29 02:04:55;;;;;;;;;;;25.60;42.30;;;;;;5078666;28;20340;-87
2021/10/29 02:07:21;;;;;;;;;;;25.50;42.30;;;;;;5061772;28;19912;-88
2021/10/29 02:09:46;;;;;;;;;;;25.50;42.40;;;;;;5061662;28;19920;-85
2021/10/29 02:12:14;;;;;;;;;;;25.60;42.50;;;;;;5061500;28;19926;-87
2021/10/29 02:14:40;;;;;;;;;;;25.60;42.40;;;;;;5061926;28;20333;-86
2021/10/29 02:17:05;;;;;;;;;;;25.60;42.50;;;;;;5061527;28;20011;-86
2021/10/29 02:19:33;;;;;;;;;;;25.60;42.50;;;;;;5061435;28;20008;-86
2021/10/29 02:21:59;;;;;;;;;;;25.60;42.50;;;;;;5061626;28;19908;-89
2021/10/29 02:24:24;;;;;;;;;;;25.60;42.50;;;;;;5061586;28;19919;-86
2021/10/29 02:26:50;;;;;;;;;;;25.60;42.60;;;;;;5062016;28;19908;-87
2021/10/29 02:29:15;;;;;;;;;;;25.60;42.60;;;;;;5061600;28;19935;-88
2021/10/29 02:31:41;;;;;;;;;;;25.60;42.70;;;;;;5061937;28;19908;-88
2021/10/29 02:34:06;;;;;;;;;;;25.50;42.70;;;;;;5061428;28;19931;-87
2021/10/29 02:36:34;;;;;;;;;;;25.60;42.70;;;;;;5061567;28;19912;-86
2021/10/29 02:39:02;;;;;;;;;;;25.50;42.70;;;;;;5061097;28;19915;-85
2021/10/29 02:41:30;;;;;;;;;;;25.50;42.80;;;;;;5061160;28;19966;-87
2021/10/29 02:44:01;;;;;;;;;;;25.50;42.80;;;;;;5061557;28;20062;-87
2021/10/29 02:46:27;;;;;;;;;;;25.50;42.80;;;;;;5062373;28;20022;-86
2021/10/29 02:48:57;;;;;;;;;;;25.50;42.80;;;;;;5065661;28;19911;-87
2021/10/29 02:51:25;;;;;;;;;;;25.50;42.90;;;;;;5066818;28;19987;-86
2021/10/29 02:53:53;;;;;;;;;;;25.50;42.90;;;;;;5065983;28;19916;-89
2021/10/29 02:56:19;;;;;;;;;;;25.50;42.90;;;;;;5065471;28;19908;-87
2021/10/29 02:58:44;;;;;;;;;;;25.50;42.90;;;;;;5065225;28;19974;-85
2021/10/29 03:01:10;;;;;;;;;;;25.50;42.90;;;;;;5065029;28;19912;-85
2021/10/29 03:03:38;;;;;;;;;;;25.50;42.90;;;;;;5065037;28;19912;-86
2021/10/29 03:06:03;;;;;;;;;;;25.50;42.90;;;;;;5064986;28;19958;-87
2021/10/29 03:08:29;;;;;;;;;;;25.50;43.10;;;;;;5065352;28;19908;-86
2021/10/29 03:10:57;;;;;;;;;;;25.50;43.10;;;;;;5065039;28;19908;-88
2021/10/29 03:13:23;;;;;;;;;;;25.50;43.10;;;;;;5065488;28;20035;-87
2021/10/29 03:15:51;;;;;;;;;;;25.50;43.10;;;;;;5065280;28;20345;-87
2021/10/29 03:18:19;;;;;;;;;;;25.50;43.10;;;;;;5065443;28;19934;-87
2021/10/29 03:20:44;;;;;;;;;;;25.40;43.00;;;;;;5065330;28;19908;-88
2021/10/29 03:23:13;;;;;;;;;;;25.40;43.10;;;;;;5064998;28;20344;-87
2021/10/29 03:25:39;;;;;;;;;;;25.40;43.20;;;;;;5065078;28;19908;-86
2021/10/29 03:28:05;;;;;;;;;;;25.40;43.20;;;;;;5064810;28;19908;-88
2021/10/29 03:30:31;;;;;;;;;;;25.40;43.20;;;;;;5081406;28;19908;-88
2021/10/29 03:32:58;;;;;;;;;;;25.40;43.20;;;;;;5081164;28;20333;-88
2021/10/29 03:35:24;;;;;;;;;;;25.40;43.20;;;;;;5065041;28;19908;-88
2021/10/29 03:41:10;;;;;;;;;;;25.40;43.30;;;;;;5053257;28;19908;-87
2021/10/29 03:43:44;;;;;;;;;;;25.40;43.30;;;;;;5067432;28;20337;-87
2021/10/29 03:46:18;;;;;;;;;;;25.40;43.30;;;;;;5065838;28;19944;-86
2021/10/29 03:51:21;;;;;;;;;;;25.40;43.40;;;;;;5082260;28;20321;-87
2021/10/29 03:56:25;;;;;;;;;;;25.40;43.40;;;;;;5081975;28;19916;-87
2021/10/29 03:58:53;;;;;;;;;;;25.40;43.40;;;;;;5065584;28;19919;-87
2021/10/29 04:01:19;;;;;;;;;;;25.30;43.50;;;;;;5081542;28;19908;-87
2021/10/29 04:03:44;;;;;;;;;;;25.30;43.50;;;;;;5097803;28;19919;-85
2021/10/29 04:06:10;;;;;;;;;;;25.40;43.50;;;;;;5064497;28;19908;-87
2021/10/29 04:08:36;;;;;;;;;;;25.40;43.60;;;;;;5064404;28;20228;-88
2021/10/29 04:11:01;;;;;;;;;;;25.40;43.50;;;;;;5064451;28;19957;-87
2021/10/29 04:13:44;;;;;;;;;;;25.30;43.50;;;;;;5064375;28;20011;-88
2021/10/29 04:16:09;;;;;;;;;;;25.30;43.60;;;;;;5066110;28;19919;-88
2021/10/29 04:18:35;;;;;;;;;;;25.40;43.60;;;;;;5064862;28;19908;-88
2021/10/29 04:21:01;;;;;;;;;;;25.30;43.60;;;;;;5064130;28;19935;-86
2021/10/29 04:23:29;;;;;;;;;;;25.40;43.60;;;;;;5064031;28;19951;-87
2021/10/29 04:25:55;;;;;;;;;;;25.30;43.60;;;;;;5063847;28;19914;-89
2021/10/29 04:28:20;;;;;;;;;;;25.30;43.60;;;;;;5063944;28;19918;-88
2021/10/29 04:30:50;;;;;;;;;;;25.30;43.60;;;;;;5064573;28;19947;-84
2021/10/29 04:33:15;;;;;;;;;;;25.30;43.60;;;;;;5065351;28;19912;-85
2021/10/29 04:35:43;;;;;;;;;;;25.30;43.60;;;;;;5064540;28;19966;-85
2021/10/29 04:38:08;;;;;;;;;;;25.40;43.70;;;;;;5065270;28;19916;-85
2021/10/29 04:40:34;;;;;;;;;;;25.40;43.70;;;;;;5063583;28;19912;-85
2021/10/29 04:43:01;;;;;;;;;;;25.40;43.70;;;;;;5063470;28;19908;-86
2021/10/29 04:45:26;;;;;;;;;;;25.30;43.70;;;;;;5063832;28;19915;-86
2021/10/29 04:47:52;;;;;;;;;;;25.30;43.70;;;;;;5064462;28;19909;-89
2021/10/29 04:50:20;;;;;;;;;;;25.30;43.70;;;;;;5064098;28;20347;-88
2021/10/29 04:52:46;;;;;;;;;;;25.30;43.70;;;;;;5063425;28;19974;-88
2021/10/29 04:55:21;;;;;;;;;;;25.30;43.70;;;;;;5080718;28;19916;-86
2021/10/29 04:57:47;;;;;;;;;;;25.30;43.80;;;;;;5064799;28;19960;-88
2021/10/29 05:00:15;;;;;;;;;;;25.30;43.70;;;;;;5065262;28;19923;-88
2021/10/29 05:02:41;;;;;;;;;;;25.30;43.80;;;;;;5064004;28;19916;-89
2021/10/29 05:05:07;;;;;;;;;;;25.30;43.90;;;;;;5064277;28;19957;-89
2021/10/29 05:07:35;;;;;;;;;;;25.30;43.90;;;;;;5064827;28;19908;-89
2021/10/29 05:10:01;;;;;;;;;;;25.30;43.80;;;;;;5062998;28;19918;-88
2021/10/29 05:12:26;;;;;;;;;;;25.30;43.90;;;;;;5063459;28;20318;-90
2021/10/29 05:14:52;;;;;;;;;;;25.30;43.80;;;;;;5063111;28;19908;-88
2021/10/29 05:17:20;;;;;;;;;;;25.30;43.80;;;;;;5062934;28;20003;-85
2021/10/29 05:19:46;;;;;;;;;;;25.30;44.00;;;;;;5063150;28;19912;-89
2021/10/29 05:22:14;;;;;;;;;;;25.30;44.00;;;;;;5063372;28;19927;-85
2021/10/29 05:24:39;;;;;;;;;;;25.20;43.90;;;;;;5079943;28;19947;-88
2021/10/29 05:27:10;;;;;;;;;;;25.20;43.90;;;;;;5062399;28;20398;-91
2021/10/29 05:29:35;;;;;;;;;;;25.30;44.00;;;;;;5063284;28;20001;-89
2021/10/29 05:32:02;;;;;;;;;;;25.30;43.90;;;;;;5062385;28;19955;-88
2021/10/29 05:34:28;;;;;;;;;;;25.30;43.90;;;;;;5062893;28;19919;-87
2021/10/29 05:36:55;;;;;;;;;;;25.20;43.80;;;;;;5062859;28;19967;-87
2021/10/29 05:39:20;;;;;;;;;;;25.30;43.90;;;;;;5062857;28;20378;-88
2021/10/29 05:41:49;;;;;;;;;;;25.30;43.90;;;;;;5063134;28;19908;-88
2021/10/29 05:44:15;;;;;;;;;;;25.30;43.90;;;;;;5062601;28;19952;-88
2021/10/29 05:46:43;;;;;;;;;;;25.20;43.90;;;;;;5062502;28;19908;-90
2021/10/29 05:49:14;;;;;;;;;;;25.20;44.00;;;;;;5062842;28;19908;-91
2021/10/29 05:51:47;;;;;;;;;;;25.20;43.90;;;;;;5081341;28;19969;-88
2021/10/29 05:54:39;;;;;;;;;;;25.20;44.00;;;;;;5063894;28;19999;-92
2021/10/29 05:57:04;;;;;;;;;;;25.20;44.00;;;;;;5065540;28;20058;-90
2021/10/29 05:59:33;;;;;;;;;;;25.20;44.10;;;;;;5062295;28;19943;-86
2021/10/29 06:01:59;;;;;;;;;;;25.20;44.00;;;;;;5062335;28;19923;-87
2021/10/29 06:04:25;;;;;;;;;;;25.20;44.00;;;;;;5061924;28;19979;-87
2021/10/29 06:06:52;;;;;;;;;;;25.20;44.00;;;;;;5062008;28;19908;-88
2021/10/29 06:09:18;;;;;;;;;;;25.20;44.00;;;;;;5062452;28;20005;-89
2021/10/29 06:11:46;;;;;;;;;;;25.20;44.00;;;;;;5062439;28;19912;-88
2021/10/29 06:14:14;;;;;;;;;;;25.20;44.00;;;;;;5062132;28;19909;-86
2021/10/29 06:16:42;;;;;;;;;;;25.20;44.00;;;;;;5062976;28;20276;-87
2021/10/29 06:19:10;;;;;;;;;;;25.20;44.00;;;;;;5062575;28;19908;-86
2021/10/29 06:22:21;;;;;;;;;;;25.20;44.00;;;;;;5061957;28;19908;-86
2021/10/29 06:24:25;;;;;;;;;;;25.20;44.00;;;;;;5073662;28;19915;-89
2021/10/29 06:26:57;;;;;;;;;;;25.20;44.00;;;;;;5061575;28;20321;-88
2021/10/29 06:29:23;;;;;;;;;;;25.20;44.00;;;;;;5062394;28;19912;-88
2021/10/29 06:31:48;;;;;;;;;;;25.20;44.10;;;;;;5061173;28;20325;-88
2021/10/29 06:34:14;;;;;;;;;;;25.10;44.00;;;;;;5062040;28;19908;-87
2021/10/29 06:36:39;;;;;;;;;;;25.20;44.10;;;;;;5062425;28;19923;-87
2021/10/29 06:39:26;;;;;;;;;;;25.20;44.10;;;;;;5078753;28;19916;-87
2021/10/29 06:41:53;;;;;;;;;;;25.20;44.10;;;;;;5081364;28;19908;-89
2021/10/29 06:44:26;;;;;;;;;;;25.20;44.10;;;;;;5062733;28;19967;-88
2021/10/29 07:00:48;;;;;;;;;;;25.10;44.20;;;;;;5080830;28;19969;-87
2021/10/29 07:41:11;;;;;;;;;;;25.10;44.40;;;;;;5084393;28;19961;-88
2021/10/29 07:43:45;;;;;;;;;;;25.10;44.40;;;;;;5065890;28;19908;-88
2021/10/29 07:46:11;;;;;;;;;;;25.10;44.40;;;;;;5082259;28;19908;-87
2021/10/29 07:48:36;;;;;;;;;;;25.10;44.30;;;;;;5064621;28;19963;-88
2021/10/29 07:51:02;;;;;;;;;;;25.10;44.40;;;;;;5064464;28;19959;-88
2021/10/29 07:53:34;;;;;;;;;;;25.10;44.30;;;;;;5081679;28;20299;-87
2021/10/29 07:56:02;;;;;;;;;;;25.10;44.30;;;;;;5065507;28;19995;-85
2021/10/29 07:58:29;;;;;;;;;;;25.10;44.30;;;;;;5081651;28;19957;-88
2021/10/29 08:00:57;;;;;;;;;;;25.10;44.30;;;;;;5081678;28;20008;-86
2021/10/29 08:03:22;;;;;;;;;;;25.10;44.30;;;;;;5064857;28;19923;-88
2021/10/29 08:05:48;;;;;;;;;;;25.10;44.30;;;;;;5064591;28;19908;-91
2021/10/29 08:08:17;;;;;;;;;;;25.10;44.30;;;;;;5065007;28;19912;-88
2021/10/29 08:10:44;;;;;;;;;;;25.10;44.30;;;;;;5064087;28;20337;-82
2021/10/29 08:13:12;;;;;;;;;;;25.10;44.40;;;;;;5063825;28;20307;-89
2021/10/29 08:15:40;;;;;;;;;;;25.20;44.80;;;;;;5080517;28;19923;-87
2021/10/29 08:18:08;;;;;;;;;;;25.30;45.00;;;;;;5080873;28;20344;-85
2021/10/29 08:20:34;;;;;;;;;;;25.40;44.90;;;;;;5063680;28;20345;-83
2021/10/29 08:23:02;;;;;;;;;;;25.50;45.00;;;;;;5063464;28;19914;-78
2021/10/29 08:25:31;;;;;;;;;;;25.60;42.00;;;;;;5062820;28;19908;-78
2021/10/29 08:27:57;;;;;;;;;;;25.30;37.70;;;;;;5079748;28;19908;-75
2021/10/29 08:30:23;;;;;;;;;;;25.00;37.10;;;;;;5097231;28;19916;-74
2021/10/29 08:32:49;;;;;;;;;;;24.80;37.10;;;;;;5079684;28;19912;-76
2021/10/29 08:35:17;;;;;;;;;;;24.60;37.20;;;;;;5079609;28;19908;-74
2021/10/29 08:37:48;;;;;;;;;;;24.40;37.20;;;;;;5097155;28;19923;-78
2021/10/29 08:40:14;;;;;;;;;;;24.30;37.50;;;;;;5063063;28;20012;-75
2021/10/29 08:42:40;;;;;;;;;;;24.20;37.60;;;;;;5096752;28;19916;-76
2021/10/29 08:45:08;;;;;;;;;;;24.10;38.00;;;;;;5078432;28;20241;-74
2021/10/29 08:47:37;;;;;;;;;;;24.00;37.70;;;;;;5070670;28;19978;-81
2021/10/29 08:50:07;;;;;;;;;;;23.90;38.10;;;;;;5079159;28;20016;-79
2021/10/29 08:52:32;;;;;;;;;;;24.00;39.20;;;;;;5079116;28;20332;-80
2021/10/29 08:55:03;;;;;;;;;;;24.30;39.00;;;;;;5062022;28;19908;-79
2021/10/29 08:57:31;;;;;;;;;;;24.50;39.00;;;;;;5062702;28;19915;-79
2021/10/29 08:59:57;;;;;;;;;;;24.70;39.40;;;;;;5079631;28;19909;-81
2021/10/29 09:02:27;;;;;;;;;;;24.80;41.50;;;;;;5062509;28;19919;-80
2021/10/29 09:32:21;;;;;;;;;;;25.70;44.40;;;;;;5081662;28;19958;-82
2021/10/29 09:34:57;;;;;;;;;;;25.80;44.30;;;;;;5062120;28;19915;-79
2021/10/29 09:37:34;;;;;;;;;;;25.80;44.30;;;;;;5076663;28;19908;-80
2021/10/29 09:40:02;;;;;;;;;;;25.90;44.30;;;;;;5075750;28;19916;-79
2021/10/29 09:42:32;;;;;;;;;;;25.90;44.30;;;;;;5041933;28;19951;-84
2021/10/29 09:45:00;;;;;;;;;;;25.90;44.20;;;;;;5058439;28;19908;-79
2021/10/29 09:47:29;;;;;;;;;;;26.00;44.30;;;;;;5075209;28;19909;-84
2021/10/29 09:50:03;;;;;;;;;;;26.00;44.40;;;;;;5076035;28;19915;-79
2021/10/29 09:53:08;;;;;;;;;;;26.00;44.20;;;;;;5075912;28;19967;-80
2021/10/29 09:55:35;;;;;;;;;;;26.00;44.20;;;;;;5060201;28;19909;-80
2021/10/29 09:58:03;;;;;;;;;;;26.10;44.20;;;;;;5058759;28;19908;-79
2021/10/29 10:00:30;;;;;;;;;;;26.10;44.10;;;;;;5041493;28;19997;-80
2021/10/29 10:02:56;;;;;;;;;;;26.10;44.00;;;;;;5057858;28;19920;-82
2021/10/29 10:05:23;;;;;;;;;;;26.10;44.00;;;;;;5057779;28;19916;-82
2021/10/29 10:07:49;;;;;;;;;;;26.20;44.00;;;;;;5057942;28;19951;-80
2021/10/29 10:10:15;;;;;;;;;;;26.20;43.70;;;;;;5040767;28;19909;-85
2021/10/29 10:12:47;;;;;;;;;;;26.20;43.80;;;;;;5057812;28;20285;-85
2021/10/29 10:15:13;;;;;;;;;;;26.20;43.80;;;;;;5057591;28;19908;-81
2021/10/29 10:17:45;;;;;;;;;;;26.30;43.90;;;;;;5057940;28;19908;-82
2021/10/29 10:20:13;;;;;;;;;;;26.30;43.80;;;;;;5057431;28;19909;-79
2021/10/29 10:22:41;;;;;;;;;;;26.30;43.80;;;;;;5057427;28;19913;-82
2021/10/29 10:25:12;;;;;;;;;;;26.30;43.90;;;;;;5057675;28;19915;-80
2021/10/29 10:47:08;;;;;;;;;;;26.30;44.20;;;;;;5080196;28;19908;-80
2021/10/29 10:49:35;;;;;;;;;;;26.30;44.00;;;;;;5077747;28;19945;-82
2021/10/29 10:52:24;;;;;;;;;;;26.30;44.00;;;;;;5079130;28;20050;-80
2021/10/29 10:54:52;;;;;;;;;;;26.30;44.10;;;;;;5092135;28;20332;-81
2021/10/29 11:10:14;;;;;;;;;;;26.40;44.10;;;;;;5119401;28;19996;-79
2021/10/29 11:12:43;;;;;;;;;;;26.40;44.20;;;;;;5084383;28;19916;-81
2021/10/29 11:15:14;;;;;;;;;;;26.50;44.30;;;;;;5119354;28;19907;-78
2021/10/29 11:17:44;;;;;;;;;;;26.50;44.30;;;;;;5101632;28;19923;-81
2021/10/29 11:20:10;;;;;;;;;;;26.50;44.30;;;;;;5086481;28;19908;-78
2021/10/29 11:22:45;;;;;;;;;;;26.50;44.30;;;;;;5135633;27;20343;-79
2021/10/29 11:25:12;;;;;;;;;;;26.50;44.20;;;;;;5084554;28;20387;-80
2021/10/29 11:27:41;;;;;;;;;;;26.50;44.10;;;;;;5084605;28;20355;-80
2021/10/29 11:30:06;;;;;;;;;;;26.50;44.20;;;;;;5119306;28;19908;-78
2021/10/29 11:32:32;;;;;;;;;;;26.50;44.10;;;;;;5084589;28;19912;-81
2021/10/29 11:35:00;;;;;;;;;;;26.50;44.10;;;;;;5084314;28;20006;-78
2021/10/29 11:37:26;;;;;;;;;;;26.50;44.10;;;;;;5101755;28;19919;-79
2021/10/29 11:39:54;;;;;;;;;;;26.50;44.10;;;;;;5084145;28;19912;-80
2021/10/29 11:42:20;;;;;;;;;;;26.50;44.10;;;;;;5083932;28;19908;-81
2021/10/29 11:44:46;;;;;;;;;;;26.60;44.00;;;;;;5118888;28;19908;-82
2021/10/29 11:47:16;;;;;;;;;;;26.60;44.10;;;;;;5084044;28;20208;-79
2021/10/29 11:49:42;;;;;;;;;;;26.50;44.00;;;;;;5101002;28;19946;-78
2021/10/29 11:52:09;;;;;;;;;;;26.60;44.00;;;;;;5100677;28;19907;-81
2021/10/29 11:54:40;;;;;;;;;;;26.60;44.00;;;;;;5101429;28;19915;-80
2021/10/29 11:57:27;;;;;;;;;;;26.60;43.90;;;;;;5101940;28;19990;-83
2021/10/29 12:08:09;;;;;;;;;;;26.50;44.00;;;;;;5103415;28;20348;-82
2021/10/29 12:10:35;;;;;;;;;;;26.60;44.10;;;;;;5083541;28;19908;-82
2021/10/29 12:13:03;;;;;;;;;;;26.60;44.10;;;;;;5100546;28;19912;-82
2021/10/29 12:15:29;;;;;;;;;;;26.60;44.00;;;;;;5100639;28;20356;-81
2021/10/29 12:18:06;;;;;;;;;;;26.60;44.00;;;;;;5100266;28;19912;-81
2021/10/29 12:20:35;;;;;;;;;;;26.60;43.80;;;;;;5135479;27;19919;-81
2021/10/29 12:23:06;;;;;;;;;;;26.60;43.80;;;;;;5097075;28;20010;-79
2021/10/29 12:30:37;;;;;;;;;;;26.60;43.80;;;;;;5105299;28;19919;-82
2021/10/29 12:53:04;;;;;;;;;;;26.60;43.60;;;;;;5116895;28;19922;-81
2021/10/29 13:03:46;;;;;;;;;;;26.70;43.80;;;;;;5102398;28;20302;-77
2021/10/29 13:06:17;;;;;;;;;;;26.70;43.80;;;;;;5099582;28;19911;-81
2021/10/29 13:08:49;;;;;;;;;;;26.70;43.70;;;;;;5100311;28;19908;-80
2021/10/29 13:11:16;;;;;;;;;;;26.70;43.80;;;;;;5099919;28;19960;-77
2021/10/29 13:13:51;;;;;;;;;;;26.70;43.90;;;;;;5099190;28;20380;-78
2021/10/29 13:16:19;;;;;;;;;;;26.70;43.70;;;;;;5100478;28;19908;-80
2021/10/29 13:19:08;;;;;;;;;;;26.70;43.80;;;;;;5117249;28;20003;-80
2021/10/29 13:27:12;;;;;;;;;;;26.80;43.80;;;;;;5101567;28;19918;-80
2021/10/29 13:51:34;;;;;;;;;;;26.80;43.90;;;;;;5104954;28;19922;-79
2021/10/29 13:54:11;;;;;;;;;;;26.80;43.90;;;;;;5102724;28;19918;-82
2021/10/29 14:29:10;;;;;;;;;;;26.80;43.60;;;;;;5101294;28;19919;-83
2021/10/29 14:31:53;;;;;;;;;;;26.80;43.50;;;;;;5099418;28;20371;-84
2021/10/29 14:34:26;;;;;;;;;;;26.80;43.40;;;;;;5084119;28;20397;-81
2021/10/29 14:37:15;;;;;;;;;;;26.80;43.40;;;;;;5082850;28;19965;-83
2021/10/29 14:39:54;;;;;;;;;;;26.80;43.40;;;;;;5084072;28;19958;-85
2021/10/29 14:47:30;;;;;;;;;;;26.80;43.30;;;;;;5098616;28;19908;-83
2021/10/29 15:16:42;;;;;;;;;;;26.80;43.40;;;;;;5100670;28;19999;-79
2021/10/29 15:27:22;;;;;;;;;;;26.80;44.00;;;;;;5118084;28;19912;-82
2021/10/29 15:45:40;;;;;;;;;;;26.90;44.20;;;;;;5097430;28;19908;-82
2021/10/29 15:48:09;;;;;;;;;;;26.90;44.20;;;;;;5080736;28;20321;-84
2021/10/29 15:50:36;;;;;;;;;;;26.90;44.20;;;;;;5097735;28;19907;-80
2021/10/29 15:53:04;;;;;;;;;;;26.70;40.60;;;;;;5080288;28;19911;-77
2021/10/29 15:55:36;;;;;;;;;;;26.30;39.10;;;;;;5116625;28;19908;-77
2021/10/29 16:00:48;;;;;;;;;;;23.00;45.30;;;;;;5118635;28;19907;-77
2021/10/29 16:03:27;;;;;;;;;;;23.40;46.50;;;;;;5118099;28;19912;-79
2021/10/29 16:17:11;;;;;;;;;;;25.80;42.80;;;;;;5102927;28;19972;-79
2021/10/29 16:19:39;;;;;;;;;;;25.90;42.70;;;;;;5102823;28;19956;-77
2021/10/29 16:22:32;;;;;;;;;;;26.00;42.70;;;;;;5083135;28;19915;-79
2021/10/29 16:27:23;;;;;;;;;;;26.20;42.90;;;;;;5100740;28;19907;-77
2021/10/29 16:29:51;;;;;;;;;;;26.30;43.00;;;;;;5083292;28;20345;-80
2021/10/29 16:32:26;;;;;;;;;;;26.30;43.00;;;;;;5100029;28;20303;-77
2021/10/29 16:34:51;;;;;;;;;;;26.30;43.60;;;;;;5101397;28;20007;-81
2021/10/29 16:37:19;;;;;;;;;;;26.40;43.00;;;;;;5083679;28;19939;-82
2021/10/29 16:39:49;;;;;;;;;;;26.40;43.00;;;;;;5117476;28;19920;-79
2021/10/29 16:42:14;;;;;;;;;;;26.50;43.10;;;;;;5100620;28;20494;-81
2021/10/29 16:44:40;;;;;;;;;;;26.50;43.10;;;;;;5082798;28;19908;-77
2021/10/29 16:47:08;;;;;;;;;;;26.50;43.10;;;;;;5099977;28;19908;-81
2021/10/29 16:49:36;;;;;;;;;;;26.50;43.10;;;;;;5082971;28;20368;-79
2021/10/29 16:52:01;;;;;;;;;;;26.60;43.10;;;;;;5099548;28;19977;-80
2021/10/29 16:54:32;;;;;;;;;;;26.60;43.10;;;;;;5083252;28;20299;-77
2021/10/29 16:56:57;;;;;;;;;;;26.60;43.10;;;;;;5100485;28;19956;-77
2021/10/29 16:59:25;;;;;;;;;;;26.60;43.10;;;;;;5100292;28;19907;-80
2021/10/29 17:01:51;;;;;;;;;;;26.60;43.10;;;;;;5117482;28;19943;-77
2021/10/29 17:04:18;;;;;;;;;;;26.70;43.20;;;;;;5099647;28;19908;-77
2021/10/29 17:06:44;;;;;;;;;;;26.70;43.30;;;;;;5133909;27;19912;-79
2021/10/29 17:09:12;;;;;;;;;;;26.70;43.30;;;;;;5082539;28;20229;-79
2021/10/29 17:11:40;;;;;;;;;;;26.70;43.30;;;;;;5117005;28;19936;-82
2021/10/29 17:14:05;;;;;;;;;;;26.70;43.20;;;;;;5082537;28;19911;-81
2021/10/29 17:16:31;;;;;;;;;;;26.70;43.20;;;;;;5099367;28;19919;-78
2021/10/29 17:18:57;;;;;;;;;;;26.70;43.20;;;;;;5099199;28;19918;-81
2021/10/29 17:21:22;;;;;;;;;;;26.70;43.20;;;;;;5082175;28;20331;-80
2021/10/29 17:23:48;;;;;;;;;;;26.70;43.20;;;;;;5099019;28;20264;-79
2021/10/29 17:26:13;;;;;;;;;;;26.70;43.20;;;;;;5098844;28;19939;-79
2021/10/29 17:28:39;;;;;;;;;;;26.70;43.10;;;;;;5098890;28;20024;-77
2021/10/29 17:31:04;;;;;;;;;;;26.70;43.20;;;;;;5098825;28;20336;-81
2021/10/29 17:33:32;;;;;;;;;;;26.70;43.20;;;;;;5081858;28;20302;-78
2021/10/29 17:36:00;;;;;;;;;;;26.70;39.70;;;;;;5116550;28;19908;-79
2021/10/29 17:38:28;;;;;;;;;;;26.10;38.00;;;;;;5116412;28;19919;-78
2021/10/29 17:40:54;;;;;;;;;;;24.20;39.30;;;;;;5099108;28;20312;-78
2021/10/29 17:43:20;;;;;;;;;;;21.70;44.10;;;;;;5082174;28;20003;-75
2021/10/29 17:45:50;;;;;;;;;;;20.00;47.90;;;;;;5116422;28;19954;-80
2021/10/29 17:48:16;;;;;;;;;;;18.90;50.50;;;;;;5099668;28;19908;-78
2021/10/29 17:50:41;;;;;;;;;;;18.20;52.30;;;;;;5081787;28;20336;-77
2021/10/29 17:53:09;;;;;;;;;;;17.90;53.30;;;;;;5098585;28;19923;-78
2021/10/29 17:55:37;;;;;;;;;;;18.70;51.40;;;;;;5098436;28;19918;-77
2021/10/29 17:58:03;;;;;;;;;;;18.30;51.90;;;;;;5098619;28;19976;-80
2021/10/29 18:00:29;;;;;;;;;;;17.80;53.00;;;;;;5081744;28;20265;-79
2021/10/29 18:02:55;;;;;;;;;;;18.60;52.50;;;;;;5099803;28;19927;-81
2021/10/29 18:05:21;;;;;;;;;;;20.00;49.90;;;;;;5115971;28;19939;-81
2021/10/29 18:07:53;;;;;;;;;;;21.20;47.40;;;;;;5101713;27;19983;-82
2021/10/29 18:10:19;;;;;;;;;;;22.10;45.60;;;;;;5103147;27;19994;-81
2021/10/29 18:12:45;;;;;;;;;;;22.80;44.30;;;;;;5119272;27;19974;-82
2021/10/29 18:15:11;;;;;;;;;;;23.30;43.30;;;;;;5119283;27;19976;-81
2021/10/29 18:17:36;;;;;;;;;;;23.60;42.70;;;;;;5118752;27;19908;-80
2021/10/29 18:20:02;;;;;;;;;;;24.00;42.30;;;;;;5102227;27;19971;-80
2021/10/29 18:22:30;;;;;;;;;;;24.10;42.00;;;;;;5118866;27;19907;-79
2021/10/29 18:24:56;;;;;;;;;;;24.30;42.40;;;;;;5102060;27;19908;-81
2021/10/29 18:27:24;;;;;;;;;;;24.40;41.60;;;;;;5102036;27;20062;-81
2021/10/29 18:29:54;;;;;;;;;;;24.60;41.60;;;;;;5101730;27;20006;-82
2021/10/29 18:32:20;;;;;;;;;;;24.60;41.60;;;;;;5118841;27;19921;-81
2021/10/29 18:34:53;;;;;;;;;;;24.80;41.60;;;;;;5118404;27;19907;-78
2021/10/29 18:37:21;;;;;;;;;;;24.80;41.50;;;;;;5084679;28;20248;-81
2021/10/29 18:39:46;;;;;;;;;;;24.90;41.50;;;;;;5132279;27;20355;-83
2021/10/29 18:42:12;;;;;;;;;;;25.00;41.40;;;;;;5116116;28;19907;-79
2021/10/29 18:44:41;;;;;;;;;;;25.00;41.40;;;;;;5098337;28;20366;-84
2021/10/29 18:47:09;;;;;;;;;;;25.10;41.40;;;;;;5098209;28;20016;-81
2021/10/29 18:49:37;;;;;;;;;;;25.10;41.40;;;;;;5081722;28;20006;-81
2021/10/29 18:52:08;;;;;;;;;;;25.20;41.40;;;;;;5081444;28;19908;-77
2021/10/29 18:54:36;;;;;;;;;;;25.20;41.40;;;;;;5098162;28;19919;-81
2021/10/29 18:57:06;;;;;;;;;;;25.20;41.40;;;;;;5097987;28;19908;-82
2021/10/29 18:59:34;;;;;;;;;;;25.30;41.50;;;;;;5097936;28;19915;-78
2021/10/29 19:02:02;;;;;;;;;;;25.30;41.40;;;;;;5080472;28;19918;-83
2021/10/29 19:04:30;;;;;;;;;;;25.30;41.40;;;;;;5080514;28;19918;-79
2021/10/29 19:07:02;;;;;;;;;;;25.30;41.40;;;;;;5080951;28;19964;-81
2021/10/29 19:09:27;;;;;;;;;;;25.40;41.50;;;;;;5098444;28;20314;-78
2021/10/29 19:11:53;;;;;;;;;;;25.30;41.40;;;;;;5080657;28;19908;-82
2021/10/29 19:14:22;;;;;;;;;;;25.40;41.50;;;;;;5097725;28;20309;-81